Lakeway's Hourly Summary for Thursday, July 5, 2018
Hour Temp
(f)
RH
(%)
Solar Rad.
(MJ/m2)
Rainfall
(in)
Wind
(mph)
7/5/2018 12:00 AM 71 99 0 0 0.73
7/5/2018 1:00 AM 70 99 0 0 0.69
7/5/2018 2:00 AM 70 99 0 0 0.54
7/5/2018 3:00 AM 70 99 0 0 0.38
7/5/2018 4:00 AM 69 98 0 0 0.25
7/5/2018 5:00 AM 70 98 0 0 0.45
7/5/2018 6:00 AM 71 99 0.01 0 0.45
7/5/2018 7:00 AM 71 99 0.12 0 0.41
7/5/2018 8:00 AM 73 98 0.47 0 0.33
7/5/2018 9:00 AM 76 90 1.06 0 0.37
7/5/2018 10:00 AM 79 80 1.96 0 0.79
7/5/2018 11:00 AM 82 69 2.41 0 1.05
7/5/2018 12:00 PM 85 62 2.92 0 1.47
7/5/2018 1:00 PM 86 56 2.92 0 1.47
7/5/2018 2:00 PM 87 53 2.12 0 1.45
7/5/2018 3:00 PM 90 45 2.64 0 1.61
7/5/2018 4:00 PM 91 41 2.64 0 1.61
7/5/2018 5:00 PM 92 38 1.9 0 1.45
7/5/2018 6:00 PM 92 38 1.82 0 1.3
7/5/2018 7:00 PM 92 38 1.27 0 1.26
7/5/2018 8:00 PM 90 43 0.5 0 0.62
7/5/2018 9:00 PM 86 53 0.07 0 0.08
7/5/2018 10:00 PM 83 55 0 0 0.22
7/5/2018 11:00 PM 82 59 0 0 0.22
Data Summary 80 71 24.83 0.00 0.80